PWSweather.com
Personal Weather Stations
Station Observations
LAKENACI1
Oak Shores Lake Nacimiento, Bradley, CA 93426

Oak Shores Lake NacimientoBradley, CA 93426

Lat: 35.749704, Lon: -120.988075

Elevation: 811

Station Type: Rain wise MK-III

https://www.rainwise.net/weather/JMConstructionOS

Latest ConditionsUpdated 9:49:00 PM PDT Tuesday, Apr 23, 2019
Currently Today's Max Today's Min Today's Average
Temperature 63.2°F17.3°C 88.9°F31.6°C 46.3°F7.9°C 66.7°F19.3°C
Dew Point 46.3°F7.9°C 54.3°F12.4°C 39.4°F4.1°C 47.2°F8.4°C
Winds Calm Calm 4.2 mph -6.8 kmh - - 1.0 mph 1.6 kmh
Wind Gusts -- 6.7 mph10.8 kmh - -
Humidity 54% 94% 22% 57%
Pressure 29.10 in985.4 mb 29.19 in988.5 mb 29.05 in983.7 mb -
Hour Temp Dew Point Humidity Winds Wind Gusts Pressure Precip Precip Rate Daily Precip Total
09:49 PM 63.2°F17.3°C 46.3°F7.9°C 54% Calm Calm -- 29.10 in985.4 mb 0.00 in0.0 mm 0.00 in0.0 mm 0.00 in0.0 mm
09:44 PM 63.5°F17.5°C 45.6°F7.6°C 52% Calm Calm -- 29.10 in985.4 mb 0.00 in0.0 mm 0.00 in0.0 mm 0.00 in0.0 mm
09:39 PM 63.8°F17.7°C 46.8°F8.2°C 54% Calm Calm -- 29.10 in985.4 mb 0.00 in0.0 mm 0.00 in0.0 mm 0.00 in0.0 mm
09:34 PM 64.2°F17.9°C 46.7°F8.2°C 53% Calm Calm -- 29.10 in985.4 mb 0.00 in0.0 mm 0.00 in0.0 mm 0.00 in0.0 mm
09:29 PM 64.4°F18.0°C 46.4°F8.0°C 52% Calm Calm -- 29.10 in985.4 mb 0.00 in0.0 mm 0.00 in0.0 mm 0.00 in0.0 mm
09:24 PM 64.8°F18.2°C 46.2°F7.9°C 51% Calm Calm -- 29.09 in985.1 mb 0.00 in0.0 mm 0.00 in0.0 mm 0.00 in0.0 mm
09:19 PM 65.3°F18.5°C 45.6°F7.6°C 49% Calm Calm -- 29.09 in985.1 mb 0.00 in0.0 mm 0.00 in0.0 mm 0.00 in0.0 mm
09:14 PM 65.7°F18.7°C 44.9°F7.2°C 47% Calm Calm -- 29.09 in985.1 mb 0.00 in0.0 mm 0.00 in0.0 mm 0.00 in0.0 mm
09:09 PM 66.2°F19.0°C 45.4°F7.4°C 47% Calm Calm -- 29.09 in985.1 mb 0.00 in0.0 mm 0.00 in0.0 mm 0.00 in0.0 mm
09:04 PM 66.5°F19.2°C 45.6°F7.6°C 47% Calm Calm -- 29.09 in985.1 mb 0.00 in0.0 mm 0.00 in0.0 mm 0.00 in0.0 mm
08:59 PM 66.6°F19.2°C 45.2°F7.3°C 46% Calm Calm -- 29.08 in984.8 mb 0.00 in0.0 mm 0.00 in0.0 mm 0.00 in0.0 mm
08:54 PM 67.1°F19.5°C 46.2°F7.9°C 47% Calm Calm -- 29.08 in984.8 mb 0.00 in0.0 mm 0.00 in0.0 mm 0.00 in0.0 mm
08:49 PM 67.6°F19.8°C 46.6°F8.1°C 47% Calm Calm -- 29.08 in984.8 mb 0.00 in0.0 mm 0.00 in0.0 mm 0.00 in0.0 mm
08:44 PM 68.1°F20.1°C 45.9°F7.7°C 45% Calm Calm -- 29.08 in984.8 mb 0.00 in0.0 mm 0.00 in0.0 mm 0.00 in0.0 mm
08:39 PM 68.7°F20.4°C 45.9°F7.7°C 44% Calm Calm -- 29.07 in984.4 mb 0.00 in0.0 mm 0.00 in0.0 mm 0.00 in0.0 mm
08:34 PM 69.5°F20.8°C 44.8°F7.1°C 41% Calm Calm -- 29.07 in984.4 mb 0.00 in0.0 mm 0.00 in0.0 mm 0.00 in0.0 mm
08:29 PM 70.4°F21.3°C 46.2°F7.9°C 42% Calm Calm -- 29.07 in984.4 mb 0.00 in0.0 mm 0.00 in0.0 mm 0.00 in0.0 mm
08:24 PM 71.3°F21.8°C 46.4°F8.0°C 41% Calm Calm -- 29.07 in984.4 mb 0.00 in0.0 mm 0.00 in0.0 mm 0.00 in0.0 mm
08:19 PM 72.4°F22.4°C 45.3°F7.4°C 38% Calm Calm -- 29.07 in984.4 mb 0.00 in0.0 mm 0.00 in0.0 mm 0.00 in0.0 mm
08:14 PM 73.6°F23.1°C 42.7°F5.9°C 33% Calm Calm -- 29.07 in984.4 mb 0.00 in0.0 mm 0.00 in0.0 mm 0.00 in0.0 mm
08:09 PM 74.6°F23.7°C 42.0°F5.6°C 31% Calm Calm -- 29.06 in984.1 mb 0.00 in0.0 mm 0.00 in0.0 mm 0.00 in0.0 mm
08:04 PM 74.8°F23.8°C 40.4°F4.7°C 29% 1.0 mph NNW1.6 kmh NNW 1.9 mph3.1 kmh 29.06 in984.1 mb 0.00 in0.0 mm 0.00 in0.0 mm 0.00 in0.0 mm
07:59 PM 75.2°F24.0°C 39.8°F4.3°C 28% 0.9 mph NW1.4 kmh NW 2.3 mph3.7 kmh 29.06 in984.1 mb 0.00 in0.0 mm 0.00 in0.0 mm 0.00 in0.0 mm
07:54 PM 75.6°F24.2°C 41.1°F5.1°C 29% 1.3 mph NNE2.1 kmh NNE 2.2 mph3.5 kmh 29.06 in984.1 mb 0.00 in0.0 mm 0.00 in0.0 mm 0.00 in0.0 mm
07:49 PM 76.0°F24.4°C 40.5°F4.7°C 28% 2.0 mph NNE3.2 kmh NNE 3.2 mph5.1 kmh 29.06 in984.1 mb 0.00 in0.0 mm 0.00 in0.0 mm 0.00 in0.0 mm
07:45 PM 76.4°F24.7°C 40.9°F4.9°C 28% 2.6 mph NNE4.2 kmh NNE 4.0 mph6.4 kmh 29.06 in984.1 mb 0.00 in0.0 mm 0.00 in0.0 mm 0.00 in0.0 mm
07:40 PM 76.9°F24.9°C 39.4°F4.1°C 26% 2.1 mph N3.4 kmh N 2.8 mph4.5 kmh 29.05 in983.7 mb 0.00 in0.0 mm 0.00 in0.0 mm 0.00 in0.0 mm
07:34 PM 77.2°F25.1°C 40.6°F4.8°C 27% 2.5 mph N4.0 kmh N 3.4 mph5.5 kmh 29.06 in984.1 mb 0.00 in0.0 mm 0.00 in0.0 mm 0.00 in0.0 mm
07:29 PM 77.3°F25.2°C 40.7°F4.8°C 27% 1.9 mph NNW3.1 kmh NNW 2.6 mph4.2 kmh 29.06 in984.1 mb 0.00 in0.0 mm 0.00 in0.0 mm 0.00 in0.0 mm
07:24 PM 77.6°F25.3°C 41.0°F5.0°C 27% 1.8 mph NNE2.9 kmh NNE 2.9 mph4.7 kmh 29.06 in984.1 mb 0.00 in0.0 mm 0.00 in0.0 mm 0.00 in0.0 mm
07:19 PM 78.0°F25.6°C 41.3°F5.2°C 27% 0.8 mph NNE1.3 kmh NNE 1.4 mph2.3 kmh 29.05 in983.7 mb 0.00 in0.0 mm 0.00 in0.0 mm 0.00 in0.0 mm
07:14 PM 78.4°F25.8°C 41.6°F5.3°C 27% 1.6 mph NW2.6 kmh NW 2.8 mph4.5 kmh 29.05 in983.7 mb 0.00 in0.0 mm 0.00 in0.0 mm 0.00 in0.0 mm
07:09 PM 78.9°F26.1°C 41.1°F5.1°C 26% 1.0 mph NNW1.6 kmh NNW 2.2 mph3.5 kmh 29.05 in983.7 mb 0.00 in0.0 mm 0.00 in0.0 mm 0.00 in0.0 mm
07:04 PM 79.7°F26.5°C 40.7°F4.8°C 25% 0.7 mph N1.1 kmh N 1.3 mph2.1 kmh 29.05 in983.7 mb 0.00 in0.0 mm 0.00 in0.0 mm 0.00 in0.0 mm
06:59 PM 80.3°F26.8°C 40.2°F4.6°C 24% 1.1 mph NNW1.8 kmh NNW 1.9 mph3.1 kmh 29.06 in984.1 mb 0.00 in0.0 mm 0.00 in0.0 mm 0.00 in0.0 mm
06:54 PM 80.8°F27.1°C 41.7°F5.4°C 25% 0.3 mph NNW0.5 kmh NNW 1.0 mph1.6 kmh 29.05 in983.7 mb 0.00 in0.0 mm 0.00 in0.0 mm 0.00 in0.0 mm
06:49 PM 81.2°F27.3°C 41.0°F5.0°C 24% 1.4 mph NNW2.3 kmh NNW 2.3 mph3.7 kmh 29.05 in983.7 mb 0.00 in0.0 mm 0.00 in0.0 mm 0.00 in0.0 mm
06:44 PM 81.6°F27.6°C 41.3°F5.2°C 24% 0.6 mph WSW1.0 kmh WSW 2.0 mph3.2 kmh 29.06 in984.1 mb 0.00 in0.0 mm 0.00 in0.0 mm 0.00 in0.0 mm
06:39 PM 81.9°F27.7°C 41.5°F5.3°C 24% 2.2 mph NNW3.5 kmh NNW 3.7 mph6.0 kmh 29.06 in984.1 mb 0.00 in0.0 mm 0.00 in0.0 mm 0.00 in0.0 mm
06:34 PM 82.6°F28.1°C 41.0°F5.0°C 23% 2.6 mph WNW4.2 kmh WNW 4.0 mph6.4 kmh 29.06 in984.1 mb 0.00 in0.0 mm 0.00 in0.0 mm 0.00 in0.0 mm
06:29 PM 83.2°F28.4°C 42.6°F5.9°C 24% 2.6 mph W4.2 kmh W 3.8 mph6.1 kmh 29.06 in984.1 mb 0.00 in0.0 mm 0.00 in0.0 mm 0.00 in0.0 mm
06:24 PM 83.5°F28.6°C 43.9°F6.6°C 25% 2.1 mph WNW3.4 kmh WNW 3.9 mph6.3 kmh 29.06 in984.1 mb 0.00 in0.0 mm 0.00 in0.0 mm 0.00 in0.0 mm
06:19 PM 83.9°F28.8°C 44.3°F6.8°C 25% 3.3 mph NW5.3 kmh NW 5.0 mph8.0 kmh 29.06 in984.1 mb 0.00 in0.0 mm 0.00 in0.0 mm 0.00 in0.0 mm
06:14 PM 84.0°F28.9°C 44.4°F6.9°C 25% 0.8 mph WNW1.3 kmh WNW 2.1 mph3.4 kmh 29.06 in984.1 mb 0.00 in0.0 mm 0.00 in0.0 mm 0.00 in0.0 mm
06:09 PM 84.3°F29.1°C 45.7°F7.6°C 26% 2.1 mph NW3.4 kmh NW 3.3 mph5.3 kmh 29.06 in984.1 mb 0.00 in0.0 mm 0.00 in0.0 mm 0.00 in0.0 mm
06:04 PM 84.5°F29.2°C 45.8°F7.7°C 26% 2.6 mph NNW4.2 kmh NNW 4.0 mph6.4 kmh 29.06 in984.1 mb 0.00 in0.0 mm 0.00 in0.0 mm 0.00 in0.0 mm
05:59 PM 84.6°F29.2°C 45.9°F7.7°C 26% 1.1 mph WNW1.8 kmh WNW 2.2 mph3.5 kmh 29.06 in984.1 mb 0.00 in0.0 mm 0.00 in0.0 mm 0.00 in0.0 mm
05:54 PM 84.7°F29.3°C 46.0°F7.8°C 26% 3.1 mph W5.0 kmh W 4.7 mph7.6 kmh 29.06 in984.1 mb 0.00 in0.0 mm 0.00 in0.0 mm 0.00 in0.0 mm
05:49 PM 85.0°F29.4°C 46.2°F7.9°C 26% 1.3 mph WNW2.1 kmh WNW 3.9 mph6.3 kmh 29.06 in984.1 mb 0.00 in0.0 mm 0.00 in0.0 mm 0.00 in0.0 mm
05:44 PM 85.3°F29.6°C 46.5°F8.1°C 26% 2.4 mph W3.9 kmh W 4.3 mph6.9 kmh 29.06 in984.1 mb 0.00 in0.0 mm 0.00 in0.0 mm 0.00 in0.0 mm
05:39 PM 85.3°F29.6°C 47.5°F8.6°C 27% 1.3 mph SSW2.1 kmh SSW 2.8 mph4.5 kmh 29.06 in984.1 mb 0.00 in0.0 mm 0.00 in0.0 mm 0.00 in0.0 mm
05:34 PM 85.4°F29.7°C 46.6°F8.1°C 26% 2.9 mph W4.7 kmh W 5.2 mph8.4 kmh 29.06 in984.1 mb 0.00 in0.0 mm 0.00 in0.0 mm 0.00 in0.0 mm
05:29 PM 86.2°F30.1°C 47.3°F8.5°C 26% 2.6 mph SW4.2 kmh SW 5.0 mph8.0 kmh 29.06 in984.1 mb 0.00 in0.0 mm 0.00 in0.0 mm 0.00 in0.0 mm
05:24 PM 87.1°F30.6°C 48.0°F8.9°C 26% 2.5 mph WNW4.0 kmh WNW 5.2 mph8.4 kmh 29.06 in984.1 mb 0.00 in0.0 mm 0.00 in0.0 mm 0.00 in0.0 mm
05:19 PM 87.3°F30.7°C 49.2°F9.6°C 27% 1.8 mph WNW2.9 kmh WNW 4.2 mph6.8 kmh 29.06 in984.1 mb 0.00 in0.0 mm 0.00 in0.0 mm 0.00 in0.0 mm
05:14 PM 87.5°F30.8°C 48.4°F9.1°C 26% 1.8 mph SSW2.9 kmh SSW 3.5 mph5.6 kmh 29.06 in984.1 mb 0.00 in0.0 mm 0.00 in0.0 mm 0.00 in0.0 mm
05:09 PM 87.5°F30.8°C 49.4°F9.7°C 27% 1.4 mph SW2.3 kmh SW 3.8 mph6.1 kmh 29.06 in984.1 mb 0.00 in0.0 mm 0.00 in0.0 mm 0.00 in0.0 mm
05:04 PM 87.1°F30.6°C 50.0°F10.0°C 28% 1.1 mph WSW1.8 kmh WSW 2.7 mph4.3 kmh 29.06 in984.1 mb 0.00 in0.0 mm 0.00 in0.0 mm 0.00 in0.0 mm
04:59 PM 86.7°F30.4°C 48.7°F9.3°C 27% 1.3 mph NE2.1 kmh NE 3.3 mph5.3 kmh 29.06 in984.1 mb 0.00 in0.0 mm 0.00 in0.0 mm 0.00 in0.0 mm
04:54 PM 87.1°F30.6°C 49.0°F9.4°C 27% 3.9 mph WSW6.3 kmh WSW 6.7 mph10.8 kmh 29.06 in984.1 mb 0.00 in0.0 mm 0.00 in0.0 mm 0.00 in0.0 mm
04:49 PM 87.7°F30.9°C 47.5°F8.6°C 25% 1.4 mph WNW2.3 kmh WNW 2.6 mph4.2 kmh 29.06 in984.1 mb 0.00 in0.0 mm 0.00 in0.0 mm 0.00 in0.0 mm
04:44 PM 88.3°F31.3°C 46.9°F8.3°C 24% 2.2 mph SW3.5 kmh SW 3.5 mph5.6 kmh 29.06 in984.1 mb 0.00 in0.0 mm 0.00 in0.0 mm 0.00 in0.0 mm
04:39 PM 88.2°F31.2°C 46.8°F8.2°C 24% 1.2 mph SSE1.9 kmh SSE 2.0 mph3.2 kmh 29.06 in984.1 mb 0.00 in0.0 mm 0.00 in0.0 mm 0.00 in0.0 mm
04:34 PM 87.6°F30.9°C 45.2°F7.3°C 23% 2.4 mph WSW3.9 kmh WSW 4.2 mph6.8 kmh 29.06 in984.1 mb 0.00 in0.0 mm 0.00 in0.0 mm 0.00 in0.0 mm
04:29 PM 86.8°F30.4°C 44.5°F6.9°C 23% 2.4 mph SW3.9 kmh SW 3.3 mph5.3 kmh 29.06 in984.1 mb 0.00 in0.0 mm 0.00 in0.0 mm 0.00 in0.0 mm
04:24 PM 86.1°F30.1°C 45.1°F7.3°C 24% 2.5 mph S4.0 kmh S 3.3 mph5.3 kmh 29.06 in984.1 mb 0.00 in0.0 mm 0.00 in0.0 mm 0.00 in0.0 mm
04:19 PM 85.8°F29.9°C 43.7°F6.5°C 23% 3.4 mph SE5.5 kmh SE 4.6 mph7.4 kmh 29.06 in984.1 mb 0.00 in0.0 mm 0.00 in0.0 mm 0.00 in0.0 mm
04:14 PM 85.8°F29.9°C 43.7°F6.5°C 23% 3.7 mph ESE6.0 kmh ESE 5.2 mph8.4 kmh 29.06 in984.1 mb 0.00 in0.0 mm 0.00 in0.0 mm 0.00 in0.0 mm
04:09 PM 86.5°F30.3°C 43.1°F6.2°C 22% 3.6 mph ESE5.8 kmh ESE 4.6 mph7.4 kmh 29.07 in984.4 mb 0.00 in0.0 mm 0.00 in0.0 mm 0.00 in0.0 mm
04:04 PM 87.1°F30.6°C 44.8°F7.1°C 23% 4.2 mph E6.8 kmh E 5.6 mph9.0 kmh 29.07 in984.4 mb 0.00 in0.0 mm 0.00 in0.0 mm 0.00 in0.0 mm
03:59 PM 86.8°F30.4°C 44.5°F6.9°C 23% 1.3 mph NE2.1 kmh NE 2.3 mph3.7 kmh 29.07 in984.4 mb 0.00 in0.0 mm 0.00 in0.0 mm 0.00 in0.0 mm
03:54 PM 87.4°F30.8°C 43.9°F6.6°C 22% 3.0 mph ENE4.8 kmh ENE 4.6 mph7.4 kmh 29.07 in984.4 mb 0.00 in0.0 mm 0.00 in0.0 mm 0.00 in0.0 mm
03:49 PM 88.7°F31.5°C 46.1°F7.8°C 23% 3.8 mph E6.1 kmh E 5.4 mph8.7 kmh 29.07 in984.4 mb 0.00 in0.0 mm 0.00 in0.0 mm 0.00 in0.0 mm
03:44 PM 88.9°F31.6°C 46.3°F7.9°C 23% 0.5 mph NNE0.8 kmh NNE 1.0 mph1.6 kmh 29.08 in984.8 mb 0.00 in0.0 mm 0.00 in0.0 mm 0.00 in0.0 mm
03:39 PM 88.6°F31.4°C 46.0°F7.8°C 23% 0.7 mph ENE1.1 kmh ENE 2.0 mph3.2 kmh 29.08 in984.8 mb 0.00 in0.0 mm 0.00 in0.0 mm 0.00 in0.0 mm
03:34 PM 88.0°F31.1°C 46.6°F8.1°C 24% 1.0 mph S1.6 kmh S 1.5 mph2.4 kmh 29.08 in984.8 mb 0.00 in0.0 mm 0.00 in0.0 mm 0.00 in0.0 mm
03:29 PM 87.4°F30.8°C 46.1°F7.8°C 24% 1.4 mph SSE2.3 kmh SSE 2.2 mph3.5 kmh 29.08 in984.8 mb 0.00 in0.0 mm 0.00 in0.0 mm 0.00 in0.0 mm
03:24 PM 88.0°F31.1°C 46.6°F8.1°C 24% 2.1 mph SSE3.4 kmh SSE 2.6 mph4.2 kmh 29.08 in984.8 mb 0.00 in0.0 mm 0.00 in0.0 mm 0.00 in0.0 mm
03:19 PM 88.7°F31.5°C 47.2°F8.4°C 24% 2.3 mph SSE3.7 kmh SSE 2.9 mph4.7 kmh 29.08 in984.8 mb 0.00 in0.0 mm 0.00 in0.0 mm 0.00 in0.0 mm
03:14 PM 88.7°F31.5°C 48.3°F9.1°C 25% 1.8 mph SW2.9 kmh SW 3.5 mph5.6 kmh 29.08 in984.8 mb 0.00 in0.0 mm 0.00 in0.0 mm 0.00 in0.0 mm
03:09 PM 87.9°F31.1°C 48.7°F9.3°C 26% 0.5 mph SSW0.8 kmh SSW 0.9 mph1.4 kmh 29.09 in985.1 mb 0.00 in0.0 mm 0.00 in0.0 mm 0.00 in0.0 mm
03:04 PM 87.5°F30.8°C 46.2°F7.9°C 24% 1.6 mph SW2.6 kmh SW 2.3 mph3.7 kmh 29.08 in984.8 mb 0.00 in0.0 mm 0.00 in0.0 mm 0.00 in0.0 mm
02:59 PM 88.1°F31.2°C 47.8°F8.8°C 25% 1.5 mph SSE2.4 kmh SSE 2.2 mph3.5 kmh 29.09 in985.1 mb 0.00 in0.0 mm 0.00 in0.0 mm 0.00 in0.0 mm
02:54 PM 87.6°F30.9°C 49.5°F9.7°C 27% 0.9 mph SSW1.4 kmh SSW 2.5 mph4.0 kmh 29.09 in985.1 mb 0.00 in0.0 mm 0.00 in0.0 mm 0.00 in0.0 mm
02:49 PM 86.8°F30.4°C 48.8°F9.3°C 27% 1.6 mph SSW2.6 kmh SSW 2.3 mph3.7 kmh 29.09 in985.1 mb 0.00 in0.0 mm 0.00 in0.0 mm 0.00 in0.0 mm
02:44 PM 86.7°F30.4°C 47.7°F8.7°C 26% 1.8 mph SW2.9 kmh SW 2.4 mph3.9 kmh 29.09 in985.1 mb 0.00 in0.0 mm 0.00 in0.0 mm 0.00 in0.0 mm
02:39 PM 86.7°F30.4°C 48.7°F9.3°C 27% 1.9 mph SSE3.1 kmh SSE 2.5 mph4.0 kmh 29.09 in985.1 mb 0.00 in0.0 mm 0.00 in0.0 mm 0.00 in0.0 mm
02:34 PM 86.5°F30.3°C 48.5°F9.2°C 27% 2.0 mph SSW3.2 kmh SSW 2.8 mph4.5 kmh 29.10 in985.4 mb 0.00 in0.0 mm 0.00 in0.0 mm 0.00 in0.0 mm
02:29 PM 86.2°F30.1°C 47.3°F8.5°C 26% 1.8 mph SSW2.9 kmh SSW 2.7 mph4.3 kmh 29.10 in985.4 mb 0.00 in0.0 mm 0.00 in0.0 mm 0.00 in0.0 mm
02:24 PM 86.2°F30.1°C 47.3°F8.5°C 26% 1.9 mph SW3.1 kmh SW 2.6 mph4.2 kmh 29.10 in985.4 mb 0.00 in0.0 mm 0.00 in0.0 mm 0.00 in0.0 mm
02:19 PM 86.2°F30.1°C 47.3°F8.5°C 26% 1.7 mph SSW2.7 kmh SSW 2.3 mph3.7 kmh 29.10 in985.4 mb 0.00 in0.0 mm 0.00 in0.0 mm 0.00 in0.0 mm
02:14 PM 86.0°F30.0°C 47.1°F8.4°C 26% 1.9 mph SSW3.1 kmh SSW 2.8 mph4.5 kmh 29.10 in985.4 mb 0.00 in0.0 mm 0.00 in0.0 mm 0.00 in0.0 mm
02:09 PM 85.8°F29.9°C 47.9°F8.8°C 27% 2.0 mph SSW3.2 kmh SSW 2.5 mph4.0 kmh 29.10 in985.4 mb 0.00 in0.0 mm 0.00 in0.0 mm 0.00 in0.0 mm
02:04 PM 85.5°F29.7°C 49.6°F9.8°C 29% 1.7 mph SSW2.7 kmh SSW 2.2 mph3.5 kmh 29.11 in985.8 mb 0.00 in0.0 mm 0.00 in0.0 mm 0.00 in0.0 mm
01:59 PM 84.8°F29.3°C 49.0°F9.4°C 29% 2.1 mph SSW3.4 kmh SSW 2.6 mph4.2 kmh 29.11 in985.8 mb 0.00 in0.0 mm 0.00 in0.0 mm 0.00 in0.0 mm
01:54 PM 84.2°F29.0°C 47.5°F8.6°C 28% 1.4 mph WSW2.3 kmh WSW 2.6 mph4.2 kmh 29.11 in985.8 mb 0.00 in0.0 mm 0.00 in0.0 mm 0.00 in0.0 mm
01:49 PM 83.7°F28.7°C 47.1°F8.4°C 28% 2.1 mph WSW3.4 kmh WSW 3.2 mph5.1 kmh 29.11 in985.8 mb 0.00 in0.0 mm 0.00 in0.0 mm 0.00 in0.0 mm
01:44 PM 83.3°F28.5°C 47.7°F8.7°C 29% 1.8 mph SSW2.9 kmh SSW 3.0 mph4.8 kmh 29.11 in985.8 mb 0.00 in0.0 mm 0.00 in0.0 mm 0.00 in0.0 mm
01:39 PM 83.1°F28.4°C 48.4°F9.1°C 30% 2.4 mph SSW3.9 kmh SSW 3.4 mph5.5 kmh 29.11 in985.8 mb 0.00 in0.0 mm 0.00 in0.0 mm 0.00 in0.0 mm
01:34 PM 82.6°F28.1°C 48.9°F9.4°C 31% 1.9 mph SSW3.1 kmh SSW 2.8 mph4.5 kmh 29.11 in985.8 mb 0.00 in0.0 mm 0.00 in0.0 mm 0.00 in0.0 mm
01:29 PM 81.9°F27.7°C 46.5°F8.1°C 29% 2.3 mph SSW3.7 kmh SSW 3.7 mph6.0 kmh 29.11 in985.8 mb 0.00 in0.0 mm 0.00 in0.0 mm 0.00 in0.0 mm
01:24 PM 81.9°F27.7°C 47.4°F8.6°C 30% 2.6 mph S4.2 kmh S 4.1 mph6.6 kmh 29.12 in986.1 mb 0.00 in0.0 mm 0.00 in0.0 mm 0.00 in0.0 mm
01:19 PM 82.2°F27.9°C 46.8°F8.2°C 29% 3.4 mph SSE5.5 kmh SSE 4.7 mph7.6 kmh 29.12 in986.1 mb 0.00 in0.0 mm 0.00 in0.0 mm 0.00 in0.0 mm
01:14 PM 82.5°F28.1°C 47.9°F8.8°C 30% 2.3 mph S3.7 kmh S 3.3 mph5.3 kmh 29.12 in986.1 mb 0.00 in0.0 mm 0.00 in0.0 mm 0.00 in0.0 mm
01:09 PM 82.2°F27.9°C 47.7°F8.7°C 30% 1.8 mph SSE2.9 kmh SSE 3.0 mph4.8 kmh 29.12 in986.1 mb 0.00 in0.0 mm 0.00 in0.0 mm 0.00 in0.0 mm
01:04 PM 81.6°F27.6°C 48.9°F9.4°C 32% 0.7 mph SSE1.1 kmh SSE 1.8 mph2.9 kmh 29.13 in986.5 mb 0.00 in0.0 mm 0.00 in0.0 mm 0.00 in0.0 mm
12:59 PM 81.5°F27.5°C 49.6°F9.8°C 33% 1.4 mph SSE2.3 kmh SSE 2.1 mph3.4 kmh 29.13 in986.5 mb 0.00 in0.0 mm 0.00 in0.0 mm 0.00 in0.0 mm
12:54 PM 81.0°F27.2°C 50.0°F10.0°C 34% 2.0 mph SSE3.2 kmh SSE 2.6 mph4.2 kmh 29.13 in986.5 mb 0.00 in0.0 mm 0.00 in0.0 mm 0.00 in0.0 mm
12:49 PM 80.9°F27.2°C 51.4°F10.8°C 36% 0.6 mph SW1.0 kmh SW 2.1 mph3.4 kmh 29.13 in986.5 mb 0.00 in0.0 mm 0.00 in0.0 mm 0.00 in0.0 mm
12:44 PM 81.2°F27.3°C 51.7°F10.9°C 36% 1.7 mph SSE2.7 kmh SSE 2.3 mph3.7 kmh 29.13 in986.5 mb 0.00 in0.0 mm 0.00 in0.0 mm 0.00 in0.0 mm
12:39 PM 81.2°F27.3°C 52.4°F11.3°C 37% 1.5 mph SSW2.4 kmh SSW 2.4 mph3.9 kmh 29.14 in986.8 mb 0.00 in0.0 mm 0.00 in0.0 mm 0.00 in0.0 mm
12:34 PM 81.0°F27.2°C 52.2°F11.2°C 37% 1.9 mph SSW3.1 kmh SSW 2.9 mph4.7 kmh 29.14 in986.8 mb 0.00 in0.0 mm 0.00 in0.0 mm 0.00 in0.0 mm
12:29 PM 80.2°F26.8°C 51.5°F10.8°C 37% 1.6 mph S2.6 kmh S 2.3 mph3.7 kmh 29.14 in986.8 mb 0.00 in0.0 mm 0.00 in0.0 mm 0.00 in0.0 mm
12:24 PM 80.3°F26.8°C 51.6°F10.9°C 37% 1.7 mph SW2.7 kmh SW 3.0 mph4.8 kmh 29.14 in986.8 mb 0.00 in0.0 mm 0.00 in0.0 mm 0.00 in0.0 mm
12:19 PM 80.4°F26.9°C 51.7°F10.9°C 37% 1.1 mph SW1.8 kmh SW 2.0 mph3.2 kmh 29.15 in987.1 mb 0.00 in0.0 mm 0.00 in0.0 mm 0.00 in0.0 mm
12:14 PM 79.3°F26.3°C 50.0°F10.0°C 36% 1.2 mph SSW1.9 kmh SSW 1.6 mph2.6 kmh 29.15 in987.1 mb 0.00 in0.0 mm 0.00 in0.0 mm 0.00 in0.0 mm
12:09 PM 79.3°F26.3°C 49.3°F9.6°C 35% 1.3 mph SW2.1 kmh SW 2.3 mph3.7 kmh 29.15 in987.1 mb 0.00 in0.0 mm 0.00 in0.0 mm 0.00 in0.0 mm
12:04 PM 79.3°F26.3°C 48.5°F9.2°C 34% 0.3 mph SW0.5 kmh SW 1.4 mph2.3 kmh 29.16 in987.5 mb 0.00 in0.0 mm 0.00 in0.0 mm 0.00 in0.0 mm
11:59 AM 77.9°F25.5°C 47.3°F8.5°C 34% 0.9 mph SSW1.4 kmh SSW 1.9 mph3.1 kmh 29.15 in987.1 mb 0.00 in0.0 mm 0.00 in0.0 mm 0.00 in0.0 mm
11:54 AM 76.7°F24.8°C 46.2°F7.9°C 34% 0.5 mph SSW0.8 kmh SSW 1.8 mph2.9 kmh 29.16 in987.5 mb 0.00 in0.0 mm 0.00 in0.0 mm 0.00 in0.0 mm
11:49 AM 76.1°F24.5°C 48.6°F9.2°C 38% 1.7 mph SW2.7 kmh SW 2.5 mph4.0 kmh 29.16 in987.5 mb 0.00 in0.0 mm 0.00 in0.0 mm 0.00 in0.0 mm
11:44 AM 75.5°F24.2°C 51.4°F10.8°C 43% 1.5 mph SW2.4 kmh SW 2.4 mph3.9 kmh 29.16 in987.5 mb 0.00 in0.0 mm 0.00 in0.0 mm 0.00 in0.0 mm
11:39 AM 74.7°F23.7°C 52.5°F11.4°C 46% 1.9 mph SW3.1 kmh SW 2.6 mph4.2 kmh 29.16 in987.5 mb 0.00 in0.0 mm 0.00 in0.0 mm 0.00 in0.0 mm
11:34 AM 73.9°F23.3°C 52.4°F11.3°C 47% 1.9 mph SW3.1 kmh SW 2.6 mph4.2 kmh 29.16 in987.5 mb 0.00 in0.0 mm 0.00 in0.0 mm 0.00 in0.0 mm
11:29 AM 73.2°F22.9°C 52.3°F11.3°C 48% 1.7 mph WSW2.7 kmh WSW 2.8 mph4.5 kmh 29.16 in987.5 mb 0.00 in0.0 mm 0.00 in0.0 mm 0.00 in0.0 mm
11:24 AM 72.5°F22.5°C 51.7°F10.9°C 48% 2.4 mph SW3.9 kmh SW 2.9 mph4.7 kmh 29.16 in987.5 mb 0.00 in0.0 mm 0.00 in0.0 mm 0.00 in0.0 mm
11:19 AM 72.2°F22.3°C 53.1°F11.7°C 51% 2.1 mph SW3.4 kmh SW 2.8 mph4.5 kmh 29.16 in987.5 mb 0.00 in0.0 mm 0.00 in0.0 mm 0.00 in0.0 mm
11:14 AM 71.7°F22.1°C 53.6°F12.0°C 53% 2.0 mph WSW3.2 kmh WSW 2.8 mph4.5 kmh 29.17 in987.8 mb 0.00 in0.0 mm 0.00 in0.0 mm 0.00 in0.0 mm
11:09 AM 71.3°F21.8°C 54.3°F12.4°C 55% 1.9 mph SW3.1 kmh SW 2.3 mph3.7 kmh 29.17 in987.8 mb 0.00 in0.0 mm 0.00 in0.0 mm 0.00 in0.0 mm
11:04 AM 70.7°F21.5°C 53.2°F11.8°C 54% 1.9 mph SW3.1 kmh SW 2.6 mph4.2 kmh 29.17 in987.8 mb 0.00 in0.0 mm 0.00 in0.0 mm 0.00 in0.0 mm
11:00 AM 70.2°F21.2°C 52.8°F11.6°C 54% 1.8 mph SSW2.9 kmh SSW 2.7 mph4.3 kmh 29.17 in987.8 mb 0.00 in0.0 mm 0.00 in0.0 mm 0.00 in0.0 mm
10:54 AM 69.5°F20.8°C 53.6°F12.0°C 57% 1.2 mph SSW1.9 kmh SSW 1.8 mph2.9 kmh 29.17 in987.8 mb 0.00 in0.0 mm 0.00 in0.0 mm 0.00 in0.0 mm
10:49 AM 68.8°F20.4°C 53.4°F11.9°C 58% 1.6 mph SSW2.6 kmh SSW 2.2 mph3.5 kmh 29.17 in987.8 mb 0.00 in0.0 mm 0.00 in0.0 mm 0.00 in0.0 mm
10:44 AM 68.8°F20.4°C 53.9°F12.2°C 59% 2.1 mph SSW3.4 kmh SSW 2.7 mph4.3 kmh 29.17 in987.8 mb 0.00 in0.0 mm 0.00 in0.0 mm 0.00 in0.0 mm
10:39 AM 68.6°F20.3°C 53.7°F12.1°C 59% 1.5 mph SSW2.4 kmh SSW 2.1 mph3.4 kmh 29.17 in987.8 mb 0.00 in0.0 mm 0.00 in0.0 mm 0.00 in0.0 mm
10:34 AM 67.6°F19.8°C 53.7°F12.1°C 61% 1.3 mph SSW2.1 kmh SSW 1.8 mph2.9 kmh 29.17 in987.8 mb 0.00 in0.0 mm 0.00 in0.0 mm 0.00 in0.0 mm
10:29 AM 66.5°F19.2°C 53.1°F11.7°C 62% 1.1 mph WSW1.8 kmh WSW 1.9 mph3.1 kmh 29.17 in987.8 mb 0.00 in0.0 mm 0.00 in0.0 mm 0.00 in0.0 mm
10:24 AM 65.7°F18.7°C 52.8°F11.6°C 63% 1.7 mph WSW2.7 kmh WSW 2.4 mph3.9 kmh 29.17 in987.8 mb 0.00 in0.0 mm 0.00 in0.0 mm 0.00 in0.0 mm
10:19 AM 65.8°F18.8°C 52.4°F11.3°C 62% 2.1 mph WSW3.4 kmh WSW 2.7 mph4.3 kmh 29.17 in987.8 mb 0.00 in0.0 mm 0.00 in0.0 mm 0.00 in0.0 mm
10:14 AM 66.0°F18.9°C 52.6°F11.4°C 62% 1.6 mph SW2.6 kmh SW 2.6 mph4.2 kmh 29.17 in987.8 mb 0.00 in0.0 mm 0.00 in0.0 mm 0.00 in0.0 mm
10:09 AM 66.0°F18.9°C 52.6°F11.4°C 62% 1.7 mph WSW2.7 kmh WSW 2.5 mph4.0 kmh 29.18 in988.1 mb 0.00 in0.0 mm 0.00 in0.0 mm 0.00 in0.0 mm
10:04 AM 65.4°F18.6°C 52.5°F11.4°C 63% 1.3 mph SW2.1 kmh SW 2.2 mph3.5 kmh 29.18 in988.1 mb 0.00 in0.0 mm 0.00 in0.0 mm 0.00 in0.0 mm
09:59 AM 64.9°F18.3°C 52.0°F11.1°C 63% 1.8 mph SW2.9 kmh SW 2.7 mph4.3 kmh 29.18 in988.1 mb 0.00 in0.0 mm 0.00 in0.0 mm 0.00 in0.0 mm
09:54 AM 65.4°F18.6°C 52.5°F11.4°C 63% 1.9 mph SSW3.1 kmh SSW 2.8 mph4.5 kmh 29.18 in988.1 mb 0.00 in0.0 mm 0.00 in0.0 mm 0.00 in0.0 mm
09:49 AM 66.2°F19.0°C 53.2°F11.8°C 63% 1.2 mph SSW1.9 kmh SSW 2.2 mph3.5 kmh 29.18 in988.1 mb 0.00 in0.0 mm 0.00 in0.0 mm 0.00 in0.0 mm
09:44 AM 66.0°F18.9°C 53.0°F11.7°C 63% 0.9 mph SW1.4 kmh SW 2.1 mph3.4 kmh 29.18 in988.1 mb 0.00 in0.0 mm 0.00 in0.0 mm 0.00 in0.0 mm
09:39 AM 65.9°F18.8°C 53.4°F11.9°C 64% 1.2 mph S1.9 kmh S 2.0 mph3.2 kmh 29.18 in988.1 mb 0.00 in0.0 mm 0.00 in0.0 mm 0.00 in0.0 mm
09:34 AM 65.0°F18.3°C 53.8°F12.1°C 67% 0.5 mph SSE0.8 kmh SSE 1.3 mph2.1 kmh 29.18 in988.1 mb 0.00 in0.0 mm 0.00 in0.0 mm 0.00 in0.0 mm
09:29 AM 63.1°F17.3°C 53.2°F11.8°C 70% 0.2 mph SSE0.3 kmh SSE 0.5 mph0.8 kmh 29.18 in988.1 mb 0.00 in0.0 mm 0.00 in0.0 mm 0.00 in0.0 mm
09:24 AM 62.2°F16.8°C 52.3°F11.3°C 70% 1.2 mph SSW1.9 kmh SSW 1.9 mph3.1 kmh 29.18 in988.1 mb 0.00 in0.0 mm 0.00 in0.0 mm 0.00 in0.0 mm
09:19 AM 62.5°F16.9°C 52.6°F11.4°C 70% 1.8 mph SSW2.9 kmh SSW 2.7 mph4.3 kmh 29.18 in988.1 mb 0.00 in0.0 mm 0.00 in0.0 mm 0.00 in0.0 mm
09:14 AM 62.4°F16.9°C 52.9°F11.6°C 71% 0.8 mph SSW1.3 kmh SSW 1.5 mph2.4 kmh 29.18 in988.1 mb 0.00 in0.0 mm 0.00 in0.0 mm 0.00 in0.0 mm
09:09 AM 61.1°F16.2°C 52.0°F11.1°C 72% 0.8 mph SSE1.3 kmh SSE 1.8 mph2.9 kmh 29.18 in988.1 mb 0.00 in0.0 mm 0.00 in0.0 mm 0.00 in0.0 mm
09:04 AM 60.0°F15.6°C 50.6°F10.3°C 71% 0.8 mph SSW1.3 kmh SSW 1.9 mph3.1 kmh 29.18 in988.1 mb 0.00 in0.0 mm 0.00 in0.0 mm 0.00 in0.0 mm
08:59 AM 60.2°F15.7°C 51.1°F10.6°C 72% 1.3 mph S2.1 kmh S 2.1 mph3.4 kmh 29.18 in988.1 mb 0.00 in0.0 mm 0.00 in0.0 mm 0.00 in0.0 mm
08:54 AM 60.1°F15.6°C 51.4°F10.8°C 73% 0.7 mph SSW1.1 kmh SSW 1.3 mph2.1 kmh 29.18 in988.1 mb 0.00 in0.0 mm 0.00 in0.0 mm 0.00 in0.0 mm
08:49 AM 59.6°F15.3°C 51.3°F10.7°C 74% 0.8 mph SSW1.3 kmh SSW 1.6 mph2.6 kmh 29.18 in988.1 mb 0.00 in0.0 mm 0.00 in0.0 mm 0.00 in0.0 mm
08:44 AM 59.4°F15.2°C 51.8°F11.0°C 76% 0.9 mph S1.4 kmh S 1.7 mph2.7 kmh 29.18 in988.1 mb 0.00 in0.0 mm 0.00 in0.0 mm 0.00 in0.0 mm
08:39 AM 58.3°F14.6°C 51.5°F10.8°C 78% 0.3 mph SE0.5 kmh SE 1.2 mph1.9 kmh 29.18 in988.1 mb 0.00 in0.0 mm 0.00 in0.0 mm 0.00 in0.0 mm
08:34 AM 56.8°F13.8°C 50.7°F10.4°C 80% 0.9 mph SE1.4 kmh SE 1.9 mph3.1 kmh 29.18 in988.1 mb 0.00 in0.0 mm 0.00 in0.0 mm 0.00 in0.0 mm
08:29 AM 56.0°F13.3°C 50.6°F10.3°C 82% 0.2 mph SSW0.3 kmh SSW 1.1 mph1.8 kmh 29.19 in988.5 mb 0.00 in0.0 mm 0.00 in0.0 mm 0.00 in0.0 mm
08:24 AM 55.2°F12.9°C 49.8°F9.9°C 82% 1.0 mph SSW1.6 kmh SSW 1.8 mph2.9 kmh 29.18 in988.1 mb 0.00 in0.0 mm 0.00 in0.0 mm 0.00 in0.0 mm
08:19 AM 54.6°F12.6°C 49.5°F9.7°C 83% 1.0 mph SSW1.6 kmh SSW 1.9 mph3.1 kmh 29.19 in988.5 mb 0.00 in0.0 mm 0.00 in0.0 mm 0.00 in0.0 mm
08:14 AM 54.6°F12.6°C 49.5°F9.7°C 83% 0.9 mph S1.4 kmh S 2.0 mph3.2 kmh 29.18 in988.1 mb 0.00 in0.0 mm 0.00 in0.0 mm 0.00 in0.0 mm
08:09 AM 54.6°F12.6°C 49.9°F9.9°C 84% 1.5 mph SSE2.4 kmh SSE 2.2 mph3.5 kmh 29.19 in988.5 mb 0.00 in0.0 mm 0.00 in0.0 mm 0.00 in0.0 mm
08:04 AM 54.2°F12.3°C 50.1°F10.1°C 86% 1.9 mph SE3.1 kmh SE 2.4 mph3.9 kmh 29.19 in988.5 mb 0.00 in0.0 mm 0.00 in0.0 mm 0.00 in0.0 mm
07:59 AM 53.4°F11.9°C 49.9°F9.9°C 88% 0.5 mph ESE0.8 kmh ESE 1.3 mph2.1 kmh 29.19 in988.5 mb 0.00 in0.0 mm 0.00 in0.0 mm 0.00 in0.0 mm
07:54 AM 52.6°F11.4°C 49.5°F9.7°C 89% Calm Calm 0.3 mph0.5 kmh 29.18 in988.1 mb 0.00 in0.0 mm 0.00 in0.0 mm 0.00 in0.0 mm
07:49 AM 51.7°F10.9°C 48.6°F9.2°C 89% 0.1 mph ESE0.2 kmh ESE 1.0 mph1.6 kmh 29.18 in988.1 mb 0.00 in0.0 mm 0.00 in0.0 mm 0.00 in0.0 mm
07:44 AM 50.7°F10.4°C 47.9°F8.8°C 90% Calm Calm -- 29.18 in988.1 mb 0.00 in0.0 mm 0.00 in0.0 mm 0.00 in0.0 mm
07:39 AM 49.9°F9.9°C 47.1°F8.4°C 90% Calm Calm -- 29.18 in988.1 mb 0.00 in0.0 mm 0.00 in0.0 mm 0.00 in0.0 mm
07:34 AM 49.4°F9.7°C 47.2°F8.4°C 92% 1.9 mph E3.1 kmh E 2.3 mph3.7 kmh 29.18 in988.1 mb 0.00 in0.0 mm 0.00 in0.0 mm 0.00 in0.0 mm
07:29 AM 48.7°F9.3°C 46.8°F8.2°C 93% 1.0 mph ENE1.6 kmh ENE 1.8 mph2.9 kmh 29.18 in988.1 mb 0.00 in0.0 mm 0.00 in0.0 mm 0.00 in0.0 mm
07:24 AM 47.9°F8.8°C 46.0°F7.8°C 93% 0.3 mph ENE0.5 kmh ENE 0.5 mph0.8 kmh 29.18 in988.1 mb 0.00 in0.0 mm 0.00 in0.0 mm 0.00 in0.0 mm
07:19 AM 47.3°F8.5°C 45.4°F7.4°C 93% Calm Calm -- 29.17 in987.8 mb 0.00 in0.0 mm 0.00 in0.0 mm 0.00 in0.0 mm
07:14 AM 47.0°F8.3°C 45.4°F7.4°C 94% 0.3 mph ENE0.5 kmh ENE 1.2 mph1.9 kmh 29.17 in987.8 mb 0.00 in0.0 mm 0.00 in0.0 mm 0.00 in0.0 mm
07:09 AM 46.7°F8.2°C 45.1°F7.3°C 94% 0.9 mph ENE1.4 kmh ENE 1.4 mph2.3 kmh 29.17 in987.8 mb 0.00 in0.0 mm 0.00 in0.0 mm 0.00 in0.0 mm
07:04 AM 46.5°F8.1°C 44.9°F7.2°C 94% Calm Calm -- 29.17 in987.8 mb 0.00 in0.0 mm 0.00 in0.0 mm 0.00 in0.0 mm
06:59 AM 46.3°F7.9°C 44.7°F7.1°C 94% 0.1 mph ENE0.2 kmh ENE 0.3 mph0.5 kmh 29.16 in987.5 mb 0.00 in0.0 mm 0.00 in0.0 mm 0.00 in0.0 mm
06:54 AM 46.3°F7.9°C 44.1°F6.7°C 92% 0.1 mph ENE0.2 kmh ENE 0.3 mph0.5 kmh 29.17 in987.8 mb 0.00 in0.0 mm 0.00 in0.0 mm 0.00 in0.0 mm
06:49 AM 46.3°F7.9°C 44.4°F6.9°C 93% 0.5 mph ENE0.8 kmh ENE 0.8 mph1.3 kmh 29.16 in987.5 mb 0.00 in0.0 mm 0.00 in0.0 mm 0.00 in0.0 mm
06:44 AM 46.5°F8.1°C 44.6°F7.0°C 93% Calm Calm -- 29.16 in987.5 mb 0.00 in0.0 mm 0.00 in0.0 mm 0.00 in0.0 mm
06:39 AM 46.6°F8.1°C 44.7°F7.1°C 93% Calm Calm 0.3 mph0.5 kmh 29.16 in987.5 mb 0.00 in0.0 mm 0.00 in0.0 mm 0.00 in0.0 mm
06:34 AM 46.7°F8.2°C 44.8°F7.1°C 93% 0.3 mph ENE0.5 kmh ENE 0.7 mph1.1 kmh 29.16 in987.5 mb 0.00 in0.0 mm 0.00 in0.0 mm 0.00 in0.0 mm
06:29 AM 46.8°F8.2°C 44.9°F7.2°C 93% Calm Calm -- 29.16 in987.5 mb 0.00 in0.0 mm 0.00 in0.0 mm 0.00 in0.0 mm
06:24 AM 47.0°F8.3°C 44.8°F7.1°C 92% Calm Calm -- 29.16 in987.5 mb 0.00 in0.0 mm 0.00 in0.0 mm 0.00 in0.0 mm
06:19 AM 47.1°F8.4°C 44.6°F7.0°C 91% 0.7 mph ENE1.1 kmh ENE 1.3 mph2.1 kmh 29.16 in987.5 mb 0.00 in0.0 mm 0.00 in0.0 mm 0.00 in0.0 mm
06:14 AM 47.1°F8.4°C 44.9°F7.2°C 92% Calm Calm -- 29.15 in987.1 mb 0.00 in0.0 mm 0.00 in0.0 mm 0.00 in0.0 mm
06:09 AM 47.2°F8.4°C 45.0°F7.2°C 92% Calm Calm -- 29.15 in987.1 mb 0.00 in0.0 mm 0.00 in0.0 mm 0.00 in0.0 mm
06:04 AM 47.3°F8.5°C 44.8°F7.1°C 91% 1.1 mph ENE1.8 kmh ENE 1.4 mph2.3 kmh 29.15 in987.1 mb 0.00 in0.0 mm 0.00 in0.0 mm 0.00 in0.0 mm
05:59 AM 47.3°F8.5°C 44.8°F7.1°C 91% Calm Calm -- 29.15 in987.1 mb 0.00 in0.0 mm 0.00 in0.0 mm 0.00 in0.0 mm
05:54 AM 47.3°F8.5°C 44.8°F7.1°C 91% Calm Calm -- 29.15 in987.1 mb 0.00 in0.0 mm 0.00 in0.0 mm 0.00 in0.0 mm
05:49 AM 47.3°F8.5°C 44.8°F7.1°C 91% 0.1 mph ENE0.2 kmh ENE 0.3 mph0.5 kmh 29.15 in987.1 mb 0.00 in0.0 mm 0.00 in0.0 mm 0.00 in0.0 mm
05:44 AM 47.3°F8.5°C 44.5°F6.9°C 90% 0.2 mph ENE0.3 kmh ENE 0.7 mph1.1 kmh 29.15 in987.1 mb 0.00 in0.0 mm 0.00 in0.0 mm 0.00 in0.0 mm
05:39 AM 47.3°F8.5°C 44.8°F7.1°C 91% 0.3 mph ENE0.5 kmh ENE 0.8 mph1.3 kmh 29.15 in987.1 mb 0.00 in0.0 mm 0.00 in0.0 mm 0.00 in0.0 mm
05:34 AM 47.5°F8.6°C 44.7°F7.1°C 90% Calm Calm -- 29.15 in987.1 mb 0.00 in0.0 mm 0.00 in0.0 mm 0.00 in0.0 mm
05:29 AM 47.7°F8.7°C 45.2°F7.3°C 91% 0.3 mph ENE0.5 kmh ENE 0.7 mph1.1 kmh 29.15 in987.1 mb 0.00 in0.0 mm 0.00 in0.0 mm 0.00 in0.0 mm
05:24 AM 47.7°F8.7°C 45.2°F7.3°C 91% 1.3 mph ENE2.1 kmh ENE 2.0 mph3.2 kmh 29.15 in987.1 mb 0.00 in0.0 mm 0.00 in0.0 mm 0.00 in0.0 mm
05:19 AM 47.7°F8.7°C 45.2°F7.3°C 91% Calm Calm -- 29.15 in987.1 mb 0.00 in0.0 mm 0.00 in0.0 mm 0.00 in0.0 mm
05:14 AM 47.7°F8.7°C 44.9°F7.2°C 90% Calm Calm -- 29.14 in986.8 mb 0.00 in0.0 mm 0.00 in0.0 mm 0.00 in0.0 mm
05:09 AM 47.7°F8.7°C 44.9°F7.2°C 90% 0.4 mph ENE0.6 kmh ENE 0.8 mph1.3 kmh 29.14 in986.8 mb 0.00 in0.0 mm 0.00 in0.0 mm 0.00 in0.0 mm
05:04 AM 47.7°F8.7°C 44.9°F7.2°C 90% 1.6 mph ENE2.6 kmh ENE 2.2 mph3.5 kmh 29.14 in986.8 mb 0.00 in0.0 mm 0.00 in0.0 mm 0.00 in0.0 mm
04:59 AM 47.9°F8.8°C 45.1°F7.3°C 90% Calm Calm -- 29.14 in986.8 mb 0.00 in0.0 mm 0.00 in0.0 mm 0.00 in0.0 mm
04:54 AM 48.0°F8.9°C 45.2°F7.3°C 90% 0.1 mph ENE0.2 kmh ENE 0.4 mph0.6 kmh 29.14 in986.8 mb 0.00 in0.0 mm 0.00 in0.0 mm 0.00 in0.0 mm
04:49 AM 48.1°F8.9°C 45.3°F7.4°C 90% 0.8 mph ENE1.3 kmh ENE 1.3 mph2.1 kmh 29.14 in986.8 mb 0.00 in0.0 mm 0.00 in0.0 mm 0.00 in0.0 mm
04:44 AM 48.2°F9.0°C 45.4°F7.4°C 90% Calm Calm -- 29.14 in986.8 mb 0.00 in0.0 mm 0.00 in0.0 mm 0.00 in0.0 mm
04:39 AM 48.4°F9.1°C 45.3°F7.4°C 89% Calm Calm -- 29.14 in986.8 mb 0.00 in0.0 mm 0.00 in0.0 mm 0.00 in0.0 mm
04:34 AM 48.3°F9.1°C 45.5°F7.5°C 90% 0.4 mph ENE0.6 kmh ENE 1.3 mph2.1 kmh 29.14 in986.8 mb 0.00 in0.0 mm 0.00 in0.0 mm 0.00 in0.0 mm
04:29 AM 48.3°F9.1°C 45.5°F7.5°C 90% Calm Calm -- 29.15 in987.1 mb 0.00 in0.0 mm 0.00 in0.0 mm 0.00 in0.0 mm
04:24 AM 48.3°F9.1°C 45.2°F7.3°C 89% Calm Calm -- 29.15 in987.1 mb 0.00 in0.0 mm 0.00 in0.0 mm 0.00 in0.0 mm
04:19 AM 48.2°F9.0°C 44.8°F7.1°C 88% 0.1 mph ENE0.2 kmh ENE 0.7 mph1.1 kmh 29.14 in986.8 mb 0.00 in0.0 mm 0.00 in0.0 mm 0.00 in0.0 mm
04:14 AM 48.3°F9.1°C 44.9°F7.2°C 88% 0.2 mph ENE0.3 kmh ENE 0.7 mph1.1 kmh 29.15 in987.1 mb 0.00 in0.0 mm 0.00 in0.0 mm 0.00 in0.0 mm
04:09 AM 48.6°F9.2°C 45.5°F7.5°C 89% Calm Calm 0.3 mph0.5 kmh 29.15 in987.1 mb 0.00 in0.0 mm 0.00 in0.0 mm 0.00 in0.0 mm
04:04 AM 48.8°F9.3°C 46.0°F7.8°C 90% 0.5 mph ENE0.8 kmh ENE 1.4 mph2.3 kmh 29.15 in987.1 mb 0.00 in0.0 mm 0.00 in0.0 mm 0.00 in0.0 mm
03:59 AM 49.1°F9.5°C 46.3°F7.9°C 90% 0.5 mph ENE0.8 kmh ENE 1.1 mph1.8 kmh 29.15 in987.1 mb 0.00 in0.0 mm 0.00 in0.0 mm 0.00 in0.0 mm
03:54 AM 49.1°F9.5°C 46.3°F7.9°C 90% Calm Calm -- 29.15 in987.1 mb 0.00 in0.0 mm 0.00 in0.0 mm 0.00 in0.0 mm
03:49 AM 49.2°F9.6°C 45.8°F7.7°C 88% 0.1 mph ENE0.2 kmh ENE 0.3 mph0.5 kmh 29.15 in987.1 mb 0.00 in0.0 mm 0.00 in0.0 mm 0.00 in0.0 mm
03:44 AM 49.3°F9.6°C 46.2°F7.9°C 89% Calm Calm -- 29.15 in987.1 mb 0.00 in0.0 mm 0.00 in0.0 mm 0.00 in0.0 mm
03:39 AM 49.6°F9.8°C 46.2°F7.9°C 88% Calm Calm -- 29.15 in987.1 mb 0.00 in0.0 mm 0.00 in0.0 mm 0.00 in0.0 mm
03:34 AM 49.6°F9.8°C 46.5°F8.1°C 89% Calm Calm -- 29.15 in987.1 mb 0.00 in0.0 mm 0.00 in0.0 mm 0.00 in0.0 mm
03:29 AM 49.7°F9.8°C 46.6°F8.1°C 89% Calm Calm -- 29.15 in987.1 mb 0.00 in0.0 mm 0.00 in0.0 mm 0.00 in0.0 mm
03:24 AM 49.8°F9.9°C 46.7°F8.2°C 89% 0.3 mph ENE0.5 kmh ENE 0.4 mph0.6 kmh 29.15 in987.1 mb 0.00 in0.0 mm 0.00 in0.0 mm 0.00 in0.0 mm
03:19 AM 50.0°F10.0°C 46.6°F8.1°C 88% 0.9 mph ENE1.4 kmh ENE 1.3 mph2.1 kmh 29.15 in987.1 mb 0.00 in0.0 mm 0.00 in0.0 mm 0.00 in0.0 mm
03:14 AM 50.0°F10.0°C 46.6°F8.1°C 88% 0.1 mph ENE0.2 kmh ENE 0.3 mph0.5 kmh 29.15 in987.1 mb 0.00 in0.0 mm 0.00 in0.0 mm 0.00 in0.0 mm
03:09 AM 50.1°F10.1°C 46.4°F8.0°C 87% 0.5 mph ENE0.8 kmh ENE 1.1 mph1.8 kmh 29.15 in987.1 mb 0.00 in0.0 mm 0.00 in0.0 mm 0.00 in0.0 mm
03:04 AM 50.4°F10.2°C 46.7°F8.2°C 87% Calm Calm -- 29.15 in987.1 mb 0.00 in0.0 mm 0.00 in0.0 mm 0.00 in0.0 mm
02:59 AM 50.6°F10.3°C 46.9°F8.3°C 87% 0.5 mph ENE0.8 kmh ENE 1.0 mph1.6 kmh 29.15 in987.1 mb 0.00 in0.0 mm 0.00 in0.0 mm 0.00 in0.0 mm
02:54 AM 50.7°F10.4°C 47.0°F8.3°C 87% Calm Calm -- 29.15 in987.1 mb 0.00 in0.0 mm 0.00 in0.0 mm 0.00 in0.0 mm
02:49 AM 50.8°F10.4°C 47.1°F8.4°C 87% 0.1 mph ENE0.2 kmh ENE 0.6 mph1.0 kmh 29.15 in987.1 mb 0.00 in0.0 mm 0.00 in0.0 mm 0.00 in0.0 mm
02:44 AM 51.1°F10.6°C 47.4°F8.6°C 87% 1.2 mph ENE1.9 kmh ENE 1.9 mph3.1 kmh 29.15 in987.1 mb 0.00 in0.0 mm 0.00 in0.0 mm 0.00 in0.0 mm
02:39 AM 51.3°F10.7°C 47.6°F8.7°C 87% Calm Calm -- 29.15 in987.1 mb 0.00 in0.0 mm 0.00 in0.0 mm 0.00 in0.0 mm
02:34 AM 51.6°F10.9°C 47.9°F8.8°C 87% 0.7 mph ENE1.1 kmh ENE 1.1 mph1.8 kmh 29.16 in987.5 mb 0.00 in0.0 mm 0.00 in0.0 mm 0.00 in0.0 mm
02:29 AM 51.5°F10.8°C 47.5°F8.6°C 86% Calm Calm -- 29.16 in987.5 mb 0.00 in0.0 mm 0.00 in0.0 mm 0.00 in0.0 mm
02:24 AM 51.3°F10.7°C 46.9°F8.3°C 85% Calm Calm -- 29.16 in987.5 mb 0.00 in0.0 mm 0.00 in0.0 mm 0.00 in0.0 mm
02:19 AM 51.4°F10.8°C 46.7°F8.2°C 84% Calm Calm -- 29.16 in987.5 mb 0.00 in0.0 mm 0.00 in0.0 mm 0.00 in0.0 mm
02:14 AM 51.6°F10.9°C 46.9°F8.3°C 84% Calm Calm -- 29.16 in987.5 mb 0.00 in0.0 mm 0.00 in0.0 mm 0.00 in0.0 mm
02:09 AM 51.7°F10.9°C 46.7°F8.2°C 83% Calm Calm -- 29.16 in987.5 mb 0.00 in0.0 mm 0.00 in0.0 mm 0.00 in0.0 mm
02:04 AM 51.7°F10.9°C 47.3°F8.5°C 85% Calm Calm 0.6 mph1.0 kmh 29.16 in987.5 mb 0.00 in0.0 mm 0.00 in0.0 mm 0.00 in0.0 mm
01:59 AM 51.7°F10.9°C 46.7°F8.2°C 83% 0.4 mph ENE0.6 kmh ENE 0.5 mph0.8 kmh 29.17 in987.8 mb 0.00 in0.0 mm 0.00 in0.0 mm 0.00 in0.0 mm
01:54 AM 51.7°F10.9°C 46.7°F8.2°C 83% Calm Calm -- 29.17 in987.8 mb 0.00 in0.0 mm 0.00 in0.0 mm 0.00 in0.0 mm
01:49 AM 52.0°F11.1°C 47.0°F8.3°C 83% Calm Calm -- 29.17 in987.8 mb 0.00 in0.0 mm 0.00 in0.0 mm 0.00 in0.0 mm
01:44 AM 52.1°F11.2°C 46.8°F8.2°C 82% Calm Calm -- 29.17 in987.8 mb 0.00 in0.0 mm 0.00 in0.0 mm 0.00 in0.0 mm
01:39 AM 52.1°F11.2°C 46.8°F8.2°C 82% Calm Calm -- 29.17 in987.8 mb 0.00 in0.0 mm 0.00 in0.0 mm 0.00 in0.0 mm
01:34 AM 52.2°F11.2°C 47.2°F8.4°C 83% Calm Calm -- 29.17 in987.8 mb 0.00 in0.0 mm 0.00 in0.0 mm 0.00 in0.0 mm
01:29 AM 52.4°F11.3°C 47.4°F8.6°C 83% Calm Calm -- 29.17 in987.8 mb 0.00 in0.0 mm 0.00 in0.0 mm 0.00 in0.0 mm
01:24 AM 52.6°F11.4°C 47.6°F8.7°C 83% Calm Calm -- 29.18 in988.1 mb 0.00 in0.0 mm 0.00 in0.0 mm 0.00 in0.0 mm
01:19 AM 52.7°F11.5°C 47.4°F8.6°C 82% Calm Calm -- 29.18 in988.1 mb 0.00 in0.0 mm 0.00 in0.0 mm 0.00 in0.0 mm
01:14 AM 53.0°F11.7°C 48.0°F8.9°C 83% Calm Calm -- 29.18 in988.1 mb 0.00 in0.0 mm 0.00 in0.0 mm 0.00 in0.0 mm
01:09 AM 53.2°F11.8°C 47.8°F8.8°C 82% 0.2 mph ENE0.3 kmh ENE 0.7 mph1.1 kmh 29.18 in988.1 mb 0.00 in0.0 mm 0.00 in0.0 mm 0.00 in0.0 mm
01:04 AM 53.5°F11.9°C 48.1°F8.9°C 82% Calm Calm -- 29.18 in988.1 mb 0.00 in0.0 mm 0.00 in0.0 mm 0.00 in0.0 mm
12:59 AM 53.5°F11.9°C 48.1°F8.9°C 82% 0.4 mph ENE0.6 kmh ENE 0.9 mph1.4 kmh 29.18 in988.1 mb 0.00 in0.0 mm 0.00 in0.0 mm 0.00 in0.0 mm
12:54 AM 53.7°F12.1°C 48.3°F9.1°C 82% Calm Calm -- 29.18 in988.1 mb 0.00 in0.0 mm 0.00 in0.0 mm 0.00 in0.0 mm
12:49 AM 53.8°F12.1°C 48.1°F8.9°C 81% 0.2 mph ENE0.3 kmh ENE 0.6 mph1.0 kmh 29.18 in988.1 mb 0.00 in0.0 mm 0.00 in0.0 mm 0.00 in0.0 mm
12:44 AM 54.1°F12.3°C 48.1°F8.9°C 80% 0.2 mph ENE0.3 kmh ENE 0.7 mph1.1 kmh 29.18 in988.1 mb 0.00 in0.0 mm 0.00 in0.0 mm 0.00 in0.0 mm
12:39 AM 54.3°F12.4°C 47.9°F8.8°C 79% 0.6 mph ENE1.0 kmh ENE 1.3 mph2.1 kmh 29.18 in988.1 mb 0.00 in0.0 mm 0.00 in0.0 mm 0.00 in0.0 mm
12:34 AM 54.5°F12.5°C 48.1°F8.9°C 79% Calm Calm -- 29.18 in988.1 mb 0.00 in0.0 mm 0.00 in0.0 mm 0.00 in0.0 mm
12:29 AM 54.7°F12.6°C 47.6°F8.7°C 77% Calm Calm -- 29.18 in988.1 mb 0.00 in0.0 mm 0.00 in0.0 mm 0.00 in0.0 mm
12:24 AM 54.7°F12.6°C 47.3°F8.5°C 76% Calm Calm -- 29.18 in988.1 mb 0.00 in0.0 mm 0.00 in0.0 mm 0.00 in0.0 mm
12:19 AM 54.8°F12.7°C 47.7°F8.7°C 77% 0.1 mph ENE0.2 kmh ENE 0.3 mph0.5 kmh 29.18 in988.1 mb 0.00 in0.0 mm 0.00 in0.0 mm 0.00 in0.0 mm
12:14 AM 55.1°F12.8°C 47.3°F8.5°C 75% 0.5 mph ENE0.8 kmh ENE 1.4 mph2.3 kmh 29.18 in988.1 mb 0.00 in0.0 mm 0.00 in0.0 mm 0.00 in0.0 mm
12:09 AM 55.2°F12.9°C 47.4°F8.6°C 75% Calm Calm -- 29.18 in988.1 mb 0.00 in0.0 mm 0.00 in0.0 mm 0.00 in0.0 mm
12:04 AM 55.3°F12.9°C 47.2°F8.4°C 74% Calm Calm -- 29.18 in988.1 mb 0.00 in0.0 mm 0.00 in0.0 mm 0.00 in0.0 mm